createdAt,value
2023-02-14T00:00:43.683Z,100.00
2023-02-14T00:03:15.098Z,100.00
2023-02-14T00:05:44.730Z,100.00
2023-02-14T00:08:14.396Z,100.00
2023-02-14T00:10:44.000Z,100.00
2023-02-14T00:13:13.689Z,100.00
2023-02-14T00:15:43.352Z,100.00
2023-02-14T00:18:12.944Z,100.00
2023-02-14T00:20:42.545Z,100.00
2023-02-14T00:23:12.295Z,100.00
2023-02-14T00:25:41.957Z,100.00
2023-02-14T00:28:11.583Z,100.00
2023-02-14T00:30:41.263Z,100.00
2023-02-14T00:33:10.863Z,100.00
2023-02-14T00:35:40.470Z,100.00
2023-02-14T00:38:10.032Z,100.00
2023-02-14T00:40:39.591Z,100.00
2023-02-14T00:43:09.279Z,100.00
2023-02-14T00:45:38.939Z,100.00
2023-02-14T00:48:08.614Z,100.00
2023-02-14T00:50:38.287Z,100.00
2023-02-14T00:53:07.006Z,100.00
2023-02-14T00:55:36.650Z,100.00
2023-02-14T00:58:06.310Z,100.00
2023-02-14T01:00:35.881Z,100.00
2023-02-14T01:03:05.518Z,100.00
2023-02-14T01:05:35.235Z,100.00
2023-02-14T01:08:05.630Z,100.00
2023-02-14T01:10:37.984Z,100.00
2023-02-14T01:13:08.286Z,100.00
2023-02-14T01:15:48.985Z,100.00
2023-02-14T01:18:20.001Z,100.00
2023-02-14T01:20:49.599Z,100.00
2023-02-14T01:23:18.380Z,100.00
2023-02-14T01:25:47.151Z,100.00
2023-02-14T01:28:14.894Z,100.00
2023-02-14T01:30:42.851Z,100.00
2023-02-14T01:33:12.370Z,100.00
2023-02-14T01:35:41.991Z,100.00
2023-02-14T01:38:11.491Z,100.00
2023-02-14T01:40:47.089Z,100.00
2023-02-14T01:43:17.459Z,100.00
2023-02-14T01:45:47.044Z,100.00
2023-02-14T01:48:20.078Z,100.00
2023-02-14T01:50:52.414Z,100.00
2023-02-14T01:53:28.315Z,100.00
2023-02-14T01:56:13.726Z,100.00
2023-02-14T01:58:45.643Z,100.00
2023-02-14T02:01:17.508Z,100.00
2023-02-14T02:03:59.166Z,100.00
2023-02-14T02:06:56.563Z,100.00
2023-02-14T02:10:07.336Z,100.00
2023-02-14T02:12:37.021Z,100.00
2023-02-14T02:15:08.302Z,100.00
2023-02-14T02:18:28.454Z,100.00
2023-02-14T02:22:17.389Z,100.00
2023-02-14T02:25:17.391Z,100.00
2023-02-14T02:28:10.785Z,100.00
2023-02-14T02:31:51.126Z,100.00
2023-02-14T02:35:23.199Z,100.00
2023-02-14T02:39:05.234Z,100.00
2023-02-14T02:41:59.901Z,100.00
2023-02-14T02:45:24.284Z,100.00
2023-02-14T02:48:16.874Z,100.00
2023-02-14T02:51:12.870Z,100.00
2023-02-14T02:54:10.152Z,100.00
2023-02-14T02:56:53.552Z,100.00
2023-02-14T02:59:33.463Z,100.00
2023-02-14T03:02:22.199Z,100.00
2023-02-14T03:04:58.774Z,100.00
2023-02-14T03:07:36.767Z,100.00
2023-02-14T03:10:28.077Z,100.00
2023-02-14T03:13:13.914Z,100.00
2023-02-14T03:16:22.367Z,100.00
2023-02-14T03:19:24.027Z,100.00
2023-02-14T03:22:11.515Z,100.00
2023-02-14T03:25:16.773Z,100.00
2023-02-14T03:28:28.865Z,100.00
2023-02-14T03:31:43.432Z,100.00
2023-02-14T03:34:36.110Z,100.00
2023-02-14T03:37:21.121Z,100.00
2023-02-14T03:40:04.071Z,100.00
2023-02-14T03:42:56.034Z,100.00
2023-02-14T03:45:47.735Z,100.00
2023-02-14T03:48:20.805Z,100.00
2023-02-14T03:50:53.175Z,100.00
2023-02-14T03:53:28.710Z,100.00
2023-02-14T03:56:19.121Z,100.00
2023-02-14T03:58:59.051Z,100.00
2023-02-14T04:02:01.525Z,100.00
2023-02-14T04:04:37.448Z,100.00
2023-02-14T04:07:20.322Z,100.00
2023-02-14T04:09:51.109Z,100.00
2023-02-14T04:12:32.342Z,100.00
2023-02-14T04:15:07.853Z,100.00
2023-02-14T04:17:55.436Z,100.00
2023-02-14T04:20:24.297Z,100.00
2023-02-14T04:22:54.172Z,100.00
2023-02-14T04:25:24.080Z,100.00
2023-02-14T04:27:53.812Z,100.00
2023-02-14T04:30:23.571Z,100.00
2023-02-14T04:32:53.174Z,100.00
2023-02-14T04:35:22.996Z,100.00
2023-02-14T04:37:52.900Z,100.00
2023-02-14T04:40:22.810Z,100.00
2023-02-14T04:42:53.486Z,100.00
2023-02-14T04:45:23.085Z,100.00
2023-02-14T04:47:52.855Z,100.00
2023-02-14T04:50:23.662Z,100.00
2023-02-14T04:52:54.235Z,100.00
2023-02-14T04:55:23.954Z,100.00
2023-02-14T04:57:53.736Z,100.00
2023-02-14T05:00:24.306Z,100.00
2023-02-14T05:02:54.578Z,100.00
2023-02-14T05:05:24.200Z,100.00
2023-02-14T05:07:53.752Z,100.00
2023-02-14T05:10:23.453Z,100.00
2023-02-14T05:12:53.055Z,100.00
2023-02-14T05:15:22.681Z,100.00
2023-02-14T05:17:52.334Z,100.00
2023-02-14T05:20:21.946Z,100.00
2023-02-14T05:22:51.696Z,100.00
2023-02-14T05:25:21.315Z,100.00
2023-02-14T05:27:50.917Z,100.00
2023-02-14T05:30:26.574Z,100.00
2023-02-14T05:32:56.326Z,100.00
2023-02-14T05:35:25.946Z,100.00
2023-02-14T05:37:56.076Z,100.00
2023-02-14T05:40:26.540Z,100.00
2023-02-14T05:42:56.969Z,100.00
2023-02-14T05:45:27.141Z,100.00
2023-02-14T05:47:56.894Z,100.00
2023-02-14T05:50:26.540Z,100.00
2023-02-14T05:52:57.232Z,100.00
2023-02-14T05:55:26.869Z,100.00
2023-02-14T05:57:56.695Z,100.00
2023-02-14T06:00:26.740Z,100.00
2023-02-14T06:02:56.567Z,100.00
2023-02-14T06:05:27.266Z,100.00
2023-02-14T06:07:56.984Z,100.00
2023-02-14T06:10:27.329Z,100.00
2023-02-14T06:12:57.863Z,100.00
2023-02-14T06:15:27.724Z,100.00
2023-02-14T06:17:58.396Z,100.00
2023-02-14T06:20:28.507Z,100.00
2023-02-14T06:22:58.673Z,100.00
2023-02-14T06:25:28.735Z,100.00
2023-02-14T06:27:59.809Z,100.00
2023-02-14T06:30:29.729Z,99.57
2023-02-14T06:32:59.554Z,96.27
2023-02-14T06:35:30.060Z,92.76
2023-02-14T06:38:00.525Z,90.96
2023-02-14T06:40:31.042Z,90.98
2023-02-14T06:43:00.739Z,89.90
2023-02-14T06:45:31.270Z,87.69
2023-02-14T06:48:01.849Z,88.60
2023-02-14T06:50:31.471Z,88.02
2023-02-14T06:53:01.308Z,87.36
2023-02-14T06:55:30.873Z,85.91
2023-02-14T06:58:00.524Z,84.98
2023-02-14T07:00:29.184Z,84.21
2023-02-14T07:02:58.961Z,80.59
2023-02-14T07:05:28.629Z,79.17
2023-02-14T07:07:58.418Z,75.91
2023-02-14T07:10:28.268Z,73.36
2023-02-14T07:12:57.792Z,71.18
2023-02-14T07:15:27.832Z,70.59
2023-02-14T07:17:57.500Z,67.16
2023-02-14T07:20:27.036Z,66.56
2023-02-14T07:22:56.639Z,64.93
2023-02-14T07:25:28.406Z,65.15
2023-02-14T07:27:58.509Z,64.53
2023-02-14T07:30:28.044Z,63.86
2023-02-14T07:32:59.162Z,62.88
2023-02-14T07:35:28.769Z,66.84
2023-02-14T07:37:59.207Z,65.81
2023-02-14T07:40:30.059Z,69.35
2023-02-14T07:43:01.114Z,78.39
2023-02-14T07:45:30.638Z,85.83
2023-02-14T07:48:02.280Z,90.93
2023-02-14T07:50:31.922Z,93.18
2023-02-14T07:53:01.454Z,92.16
2023-02-14T07:55:30.993Z,93.11
2023-02-14T07:58:00.735Z,92.19
2023-02-14T08:00:30.335Z,92.56
2023-02-14T08:03:00.293Z,91.28
2023-02-14T08:05:30.040Z,92.41
2023-02-14T08:07:59.593Z,93.13
2023-02-14T08:10:29.122Z,92.72
2023-02-14T08:12:58.955Z,93.18
2023-02-14T08:15:52.809Z,93.76
2023-02-14T08:18:23.488Z,92.78
2023-02-14T08:20:53.076Z,92.08
2023-02-14T08:23:23.135Z,91.71
2023-02-14T08:25:53.706Z,92.88
2023-02-14T08:28:23.816Z,92.90
2023-02-14T08:30:54.469Z,90.78
2023-02-14T08:33:23.731Z,90.56
2023-02-14T08:35:53.291Z,91.72
2023-02-14T08:38:22.657Z,91.87
2023-02-14T08:40:52.245Z,92.14
2023-02-14T08:43:21.660Z,91.19
2023-02-14T08:45:54.556Z,90.98
2023-02-14T08:48:25.381Z,89.81
2023-02-14T08:50:54.862Z,88.15
2023-02-14T08:53:24.422Z,86.93
2023-02-14T08:55:53.995Z,87.60
2023-02-14T08:58:23.493Z,87.34
2023-02-14T09:00:52.955Z,86.55
2023-02-14T09:03:22.624Z,86.87
2023-02-14T09:05:52.277Z,84.95
2023-02-14T09:08:22.000Z,83.76
2023-02-14T09:10:52.334Z,82.78
2023-02-14T09:13:21.846Z,81.17
2023-02-14T09:15:51.402Z,81.37
2023-02-14T09:18:20.972Z,80.92
2023-02-14T09:20:50.552Z,82.45
2023-02-14T09:23:20.119Z,81.86
2023-02-14T09:25:48.844Z,79.70
2023-02-14T09:28:17.475Z,80.57
2023-02-14T09:30:46.906Z,79.95
2023-02-14T09:33:16.406Z,79.61
2023-02-14T09:35:48.815Z,77.80
2023-02-14T09:38:20.984Z,77.46
2023-02-14T09:40:50.776Z,77.79
2023-02-14T09:43:46.303Z,76.55
2023-02-14T09:46:17.950Z,75.94
2023-02-14T09:48:49.420Z,74.98
2023-02-14T09:51:25.607Z,73.64
2023-02-14T09:54:34.750Z,72.99
2023-02-14T09:57:35.680Z,72.49
2023-02-14T10:00:33.625Z,71.49
2023-02-14T10:03:47.714Z,71.56
2023-02-14T10:06:51.416Z,69.91
2023-02-14T10:10:15.021Z,72.19
2023-02-14T10:12:57.498Z,73.92
2023-02-14T10:15:38.719Z,73.21
2023-02-14T10:18:27.920Z,72.97
2023-02-14T10:21:02.747Z,73.08
2023-02-14T10:23:49.073Z,73.12
2023-02-14T10:26:37.443Z,71.59
2023-02-14T10:29:20.969Z,70.69
2023-02-14T10:32:03.552Z,69.11
2023-02-14T10:34:52.028Z,69.76
2023-02-14T10:37:52.007Z,70.07
2023-02-14T10:40:48.353Z,69.24
2023-02-14T10:44:00.762Z,69.01
2023-02-14T10:47:03.535Z,68.50
2023-02-14T10:50:12.030Z,68.06
2023-02-14T10:53:27.078Z,67.87
2023-02-14T10:56:18.719Z,65.93
2023-02-14T10:58:51.577Z,65.98
2023-02-14T11:01:21.145Z,64.70
2023-02-14T11:04:08.834Z,63.69
2023-02-14T11:06:38.491Z,64.26
2023-02-14T11:09:10.039Z,65.83
2023-02-14T11:12:00.224Z,63.84
2023-02-14T11:14:38.658Z,64.35
2023-02-14T11:17:31.755Z,63.80
2023-02-14T11:20:30.447Z,63.77
2023-02-14T11:23:00.242Z,63.71
2023-02-14T11:25:35.409Z,62.88
2023-02-14T11:28:18.973Z,64.14
2023-02-14T11:30:50.597Z,64.18
2023-02-14T11:33:45.841Z,62.65
2023-02-14T11:36:18.144Z,63.01
2023-02-14T11:39:31.261Z,63.13
2023-02-14T11:42:05.746Z,63.71
2023-02-14T11:44:37.572Z,63.46
2023-02-14T11:47:33.002Z,62.44
2023-02-14T11:50:26.077Z,62.46
2023-02-14T11:52:57.210Z,61.62
2023-02-14T11:55:33.839Z,62.31
2023-02-14T11:58:07.463Z,61.32
2023-02-14T12:00:37.746Z,60.62
2023-02-14T12:03:08.442Z,60.90
2023-02-14T12:05:49.026Z,60.87
2023-02-14T12:08:28.956Z,60.22
2023-02-14T12:11:22.749Z,61.71
2023-02-14T12:13:57.683Z,60.25
2023-02-14T12:16:46.460Z,58.63
2023-02-14T12:19:45.867Z,57.93
2023-02-14T12:22:34.569Z,58.75
2023-02-14T12:25:31.240Z,57.49
2023-02-14T12:28:09.667Z,57.66
2023-02-14T12:30:38.833Z,57.08
2023-02-14T12:33:21.141Z,57.27
2023-02-14T12:36:09.821Z,58.15
2023-02-14T12:39:47.878Z,56.45
2023-02-14T12:42:26.090Z,58.03
2023-02-14T12:45:25.348Z,58.74
2023-02-14T12:48:36.369Z,57.38
2023-02-14T12:51:47.818Z,59.67
2023-02-14T12:55:06.315Z,59.18
2023-02-14T12:58:43.036Z,58.58
2023-02-14T13:01:40.753Z,57.33
2023-02-14T13:04:55.048Z,59.74
2023-02-14T13:07:44.881Z,58.03
2023-02-14T13:10:36.370Z,56.97
2023-02-14T13:13:37.963Z,56.49
2023-02-14T13:16:38.538Z,56.90
2023-02-14T13:19:35.023Z,56.75
2023-02-14T13:22:06.448Z,56.70
2023-02-14T13:24:43.562Z,56.75
2023-02-14T13:27:25.037Z,58.08
2023-02-14T13:30:27.961Z,57.77
2023-02-14T13:33:03.598Z,58.28
2023-02-14T13:35:32.853Z,59.92
2023-02-14T13:38:14.035Z,59.83
2023-02-14T13:40:43.822Z,59.86
2023-02-14T13:43:13.318Z,60.06
2023-02-14T13:45:51.047Z,60.28
2023-02-14T13:48:24.890Z,61.91
2023-02-14T13:51:15.578Z,61.60
2023-02-14T13:53:51.529Z,61.91
2023-02-14T13:56:21.277Z,61.14
2023-02-14T13:59:04.638Z,60.48
2023-02-14T14:01:50.287Z,61.08
2023-02-14T14:04:36.557Z,62.05
2023-02-14T14:07:16.091Z,61.83
2023-02-14T14:09:45.700Z,61.63
2023-02-14T14:12:29.586Z,61.58
2023-02-14T14:15:08.311Z,62.34
2023-02-14T14:17:41.985Z,61.23
2023-02-14T14:20:18.814Z,60.27
2023-02-14T14:22:51.264Z,62.10
2023-02-14T14:25:42.377Z,63.76
2023-02-14T14:28:22.685Z,61.50
2023-02-14T14:30:52.707Z,61.08
2023-02-14T14:33:33.478Z,61.88
2023-02-14T14:36:13.065Z,61.17
2023-02-14T14:38:54.207Z,60.86
2023-02-14T14:41:32.685Z,60.95
2023-02-14T14:44:04.289Z,61.52
2023-02-14T14:46:33.501Z,62.42
2023-02-14T14:49:05.908Z,62.08
2023-02-14T14:51:37.009Z,62.66
2023-02-14T14:54:18.812Z,63.28
2023-02-14T14:56:57.214Z,63.96
2023-02-14T14:59:30.163Z,63.79
2023-02-14T15:01:59.720Z,63.98
2023-02-14T15:04:36.018Z,63.97
2023-02-14T15:07:33.236Z,64.06
2023-02-14T15:10:03.587Z,64.42
2023-02-14T15:12:51.637Z,64.59
2023-02-14T15:15:21.285Z,65.28
2023-02-14T15:17:50.948Z,65.53
2023-02-14T15:20:24.128Z,66.52
2023-02-14T15:22:54.811Z,66.72
2023-02-14T15:25:35.653Z,66.85
2023-02-14T15:28:05.236Z,67.29
2023-02-14T15:30:38.212Z,68.32
2023-02-14T15:33:10.205Z,68.78
2023-02-14T15:35:42.562Z,69.50
2023-02-14T15:38:14.603Z,71.45
2023-02-14T15:40:45.161Z,69.81
2023-02-14T15:43:25.128Z,70.95
2023-02-14T15:46:31.091Z,71.85
2023-02-14T15:49:08.588Z,72.42
2023-02-14T15:51:39.889Z,73.16
2023-02-14T15:54:33.751Z,74.21
2023-02-14T15:57:05.478Z,75.23
2023-02-14T15:59:37.124Z,75.23
2023-02-14T16:02:36.378Z,76.65
2023-02-14T16:05:22.858Z,76.93
2023-02-14T16:08:06.568Z,77.82
2023-02-14T16:10:38.714Z,79.12
2023-02-14T16:13:20.800Z,79.08
2023-02-14T16:16:12.400Z,79.02
2023-02-14T16:18:56.912Z,79.92
2023-02-14T16:21:32.297Z,80.26
2023-02-14T16:24:07.648Z,79.93
2023-02-14T16:26:46.352Z,81.51
2023-02-14T16:29:21.057Z,81.13
2023-02-14T16:32:14.782Z,80.47
2023-02-14T16:34:47.579Z,81.12
2023-02-14T16:37:30.782Z,82.38
2023-02-14T16:40:02.582Z,82.92
2023-02-14T16:42:31.598Z,82.16
2023-02-14T16:45:02.148Z,82.94
2023-02-14T16:47:31.793Z,82.76
2023-02-14T16:50:01.420Z,84.07
2023-02-14T16:52:31.143Z,85.12
2023-02-14T16:55:00.897Z,86.50
2023-02-14T16:57:40.306Z,86.09
2023-02-14T17:00:11.864Z,86.35
2023-02-14T17:02:44.294Z,86.75
2023-02-14T17:05:12.946Z,87.67
2023-02-14T17:07:44.200Z,88.10
2023-02-14T17:10:20.896Z,88.56
2023-02-14T17:12:52.696Z,88.56
2023-02-14T17:15:25.088Z,88.00
2023-02-14T17:18:04.913Z,87.10
2023-02-14T17:20:35.819Z,88.50
2023-02-14T17:23:06.477Z,90.31
2023-02-14T17:25:36.166Z,89.75
2023-02-14T17:28:06.773Z,89.19
2023-02-14T17:30:36.552Z,88.81
2023-02-14T17:33:06.269Z,89.06
2023-02-14T17:35:38.388Z,89.04
2023-02-14T17:38:08.955Z,89.21
2023-02-14T17:40:38.701Z,88.99
2023-02-14T17:43:09.425Z,88.63
2023-02-14T17:45:39.280Z,88.56
2023-02-14T17:48:11.439Z,88.16
2023-02-14T17:50:41.293Z,89.05
2023-02-14T17:53:12.651Z,90.03
2023-02-14T17:55:44.100Z,90.49
2023-02-14T17:58:13.748Z,91.09
2023-02-14T18:00:43.400Z,90.82
2023-02-14T18:03:11.228Z,90.47
2023-02-14T18:05:40.868Z,90.65
2023-02-14T18:08:10.554Z,91.57
2023-02-14T18:10:40.183Z,92.17
2023-02-14T18:13:09.792Z,91.64
2023-02-14T18:15:39.508Z,91.38
2023-02-14T18:18:11.323Z,91.28
2023-02-14T18:20:41.324Z,91.25
2023-02-14T18:23:11.861Z,91.55
2023-02-14T18:25:41.631Z,92.75
2023-02-14T18:28:11.307Z,93.39
2023-02-14T18:30:41.009Z,93.74
2023-02-14T18:33:11.100Z,93.62
2023-02-14T18:35:42.105Z,93.58
2023-02-14T18:38:13.631Z,93.61
2023-02-14T18:40:43.353Z,94.18
2023-02-14T18:43:13.175Z,93.37
2023-02-14T18:45:41.346Z,93.39
2023-02-14T18:48:11.883Z,93.81
2023-02-14T18:50:42.423Z,93.80
2023-02-14T18:53:12.263Z,95.29
2023-02-14T18:55:41.980Z,95.48
2023-02-14T18:58:11.801Z,96.14
2023-02-14T19:00:40.063Z,96.57
2023-02-14T19:03:09.789Z,96.98
2023-02-14T19:05:39.098Z,97.30
2023-02-14T19:08:08.901Z,96.64
2023-02-14T19:10:39.021Z,96.86
2023-02-14T19:13:08.741Z,96.62
2023-02-14T19:15:38.410Z,96.43
2023-02-14T19:18:08.165Z,97.25
2023-02-14T19:20:38.707Z,97.61
2023-02-14T19:23:08.321Z,97.91
2023-02-14T19:25:38.115Z,97.70
2023-02-14T19:28:11.532Z,98.21
2023-02-14T19:30:41.267Z,99.10
2023-02-14T19:33:11.925Z,98.33
2023-02-14T19:35:41.549Z,98.42
2023-02-14T19:38:11.245Z,99.40
2023-02-14T19:40:45.354Z,99.84
2023-02-14T19:43:15.902Z,98.85
2023-02-14T19:45:46.419Z,98.17
2023-02-14T19:48:17.834Z,97.78
2023-02-14T19:50:45.764Z,98.04
2023-02-14T19:53:15.490Z,98.25
2023-02-14T19:55:46.522Z,98.49
2023-02-14T19:58:17.096Z,98.38
2023-02-14T20:00:58.763Z,98.86
2023-02-14T20:03:29.226Z,99.06
2023-02-14T20:05:57.099Z,98.33
2023-02-14T20:08:27.689Z,98.13
2023-02-14T20:10:58.273Z,98.44
2023-02-14T20:13:28.184Z,98.93
2023-02-14T20:15:57.917Z,99.05
2023-02-14T20:18:27.513Z,99.29
2023-02-14T20:21:03.117Z,99.24
2023-02-14T20:23:34.075Z,98.97
2023-02-14T20:26:03.716Z,98.68
2023-02-14T20:28:33.352Z,98.92
2023-02-14T20:31:13.999Z,98.95
2023-02-14T20:33:43.897Z,98.43
2023-02-14T20:36:14.917Z,99.39
2023-02-14T20:38:47.507Z,99.48
2023-02-14T20:41:17.221Z,99.79
2023-02-14T20:43:46.926Z,100.00
2023-02-14T20:46:17.626Z,100.00
2023-02-14T20:48:47.342Z,100.00
2023-02-14T20:51:20.904Z,100.00
2023-02-14T20:53:50.671Z,99.86
2023-02-14T20:56:22.894Z,99.96
2023-02-14T20:58:52.561Z,100.00
2023-02-14T21:01:25.352Z,100.00
2023-02-14T21:03:56.176Z,100.00
2023-02-14T21:06:31.491Z,100.00
2023-02-14T21:09:02.765Z,100.00
2023-02-14T21:11:34.160Z,100.00
2023-02-14T21:14:04.758Z,100.00
2023-02-14T21:16:34.494Z,100.00
2023-02-14T21:19:04.901Z,100.00
2023-02-14T21:21:37.592Z,100.00
2023-02-14T21:24:15.076Z,100.00
2023-02-14T21:26:45.943Z,100.00
2023-02-14T21:29:15.661Z,100.00
2023-02-14T21:31:45.470Z,100.00
2023-02-14T21:34:16.848Z,100.00
2023-02-14T21:36:46.567Z,100.00
2023-02-14T21:39:16.322Z,100.00
2023-02-14T21:41:45.919Z,100.00
2023-02-14T21:44:35.558Z,100.00
2023-02-14T21:47:05.395Z,100.00
2023-02-14T21:49:53.748Z,100.00
2023-02-14T21:52:24.306Z,100.00
2023-02-14T21:54:53.995Z,100.00
2023-02-14T21:57:24.496Z,100.00
2023-02-14T21:59:54.093Z,100.00
2023-02-14T22:02:23.851Z,100.00
2023-02-14T22:04:53.504Z,100.00
2023-02-14T22:07:23.171Z,100.00
2023-02-14T22:09:53.739Z,100.00
2023-02-14T22:12:24.222Z,100.00
2023-02-14T22:14:53.852Z,100.00
2023-02-14T22:17:24.384Z,100.00
2023-02-14T22:19:55.581Z,100.00
2023-02-14T22:22:26.342Z,100.00
2023-02-14T22:24:56.877Z,100.00
2023-02-14T22:27:24.778Z,100.00
2023-02-14T22:29:55.341Z,100.00
2023-02-14T22:32:25.905Z,100.00
2023-02-14T22:34:56.515Z,100.00
2023-02-14T22:37:27.261Z,100.00
2023-02-14T22:39:56.946Z,100.00
2023-02-14T22:42:26.577Z,100.00
2023-02-14T22:44:56.264Z,100.00
2023-02-14T22:47:26.990Z,100.00
2023-02-14T22:49:56.685Z,100.00
2023-02-14T22:52:26.322Z,100.00
2023-02-14T22:54:56.772Z,100.00
2023-02-14T22:57:26.473Z,100.00
2023-02-14T22:59:56.170Z,100.00
2023-02-14T23:02:26.830Z,100.00
2023-02-14T23:04:57.374Z,100.00
2023-02-14T23:07:27.879Z,100.00
2023-02-14T23:09:58.381Z,100.00
2023-02-14T23:12:46.719Z,100.00
2023-02-14T23:15:35.821Z,100.00
2023-02-14T23:18:24.680Z,100.00
2023-02-14T23:21:13.865Z,100.00
2023-02-14T23:23:43.629Z,100.00
2023-02-14T23:26:13.348Z,100.00
2023-02-14T23:28:43.082Z,100.00
2023-02-14T23:31:12.869Z,100.00
2023-02-14T23:33:43.367Z,100.00
2023-02-14T23:36:13.836Z,100.00
2023-02-14T23:38:44.280Z,100.00
2023-02-14T23:41:32.571Z,100.00
2023-02-14T23:44:02.254Z,100.00
2023-02-14T23:46:32.720Z,100.00
2023-02-14T23:49:02.364Z,100.00
2023-02-14T23:51:34.784Z,100.00
2023-02-14T23:54:05.551Z,100.00
2023-02-14T23:56:36.408Z,100.00
2023-02-14T23:59:07.747Z,100.00
